sensor_id;sensor_type;location;lat;lon;timestamp;pressure;altitude;pressure_sealevel;temperature;humidity
22649;BME280;11491;41.942;24.220;2022-12-18T00:02:42;90387.00;;;8.79;93.40
22649;BME280;11491;41.942;24.220;2022-12-18T00:08:10;90345.66;;;8.65;92.80
22649;BME280;11491;41.942;24.220;2022-12-18T00:10:38;90310.94;;;7.79;94.90
22649;BME280;11491;41.942;24.220;2022-12-18T00:13:10;90364.44;;;8.04;96.37
22649;BME280;11491;41.942;24.220;2022-12-18T00:19:10;90312.63;;;7.92;95.86
22649;BME280;11491;41.942;24.220;2022-12-18T00:22:00;90360.63;;;8.22;96.00
22649;BME280;11491;41.942;24.220;2022-12-18T00:36:00;90359.69;;;8.35;94.96
22649;BME280;11491;41.942;24.220;2022-12-18T02:12:52;90488.19;;;7.80;92.38
22649;BME280;11491;41.942;24.220;2022-12-18T02:15:46;90499.47;;;7.94;91.27
22649;BME280;11491;41.942;24.220;2022-12-18T02:21:56;90515.44;;;7.86;91.62
22649;BME280;11491;41.942;24.220;2022-12-18T02:24:34;90493.34;;;7.76;92.34
22649;BME280;11491;41.942;24.220;2022-12-18T02:27:09;90435.50;;;7.25;92.99
22649;BME280;11491;41.942;24.220;2022-12-18T02:29:40;90364.44;;;6.99;92.21
22649;BME280;11491;41.942;24.220;2022-12-18T02:32:11;90437.13;;;7.43;92.32
22649;BME280;11491;41.942;24.220;2022-12-18T02:34:43;90444.63;;;7.41;92.41
22649;BME280;11491;41.942;24.220;2022-12-18T02:37:29;90497.72;;;7.72;93.15
22649;BME280;11491;41.942;24.220;2022-12-18T02:40:02;90370.53;;;6.91;93.52
22649;BME280;11491;41.942;24.220;2022-12-18T02:42:33;90462.75;;;7.30;93.55
22649;BME280;11491;41.942;24.220;2022-12-18T02:45:01;90436.22;;;7.08;94.19
22649;BME280;11491;41.942;24.220;2022-12-18T02:47:33;90427.00;;;7.05;94.95
22649;BME280;11491;41.942;24.220;2022-12-18T02:50:09;90358.88;;;6.61;95.16
22649;BME280;11491;41.942;24.220;2022-12-18T02:52:45;90428.44;;;7.11;93.71
22649;BME280;11491;41.942;24.220;2022-12-18T02:55:24;90342.06;;;6.43;92.76
22649;BME280;11491;41.942;24.220;2022-12-18T02:57:57;90382.47;;;6.62;93.01
22649;BME280;11491;41.942;24.220;2022-12-18T03:00:30;90485.25;;;7.16;93.08
22649;BME280;11491;41.942;24.220;2022-12-18T03:03:05;90497.13;;;7.18;93.49
22649;BME280;11491;41.942;24.220;2022-12-18T03:05:39;90394.56;;;6.37;94.02
22649;BME280;11491;41.942;24.220;2022-12-18T03:08:12;90379.53;;;6.33;93.83
22649;BME280;11491;41.942;24.220;2022-12-18T03:10:44;90456.78;;;6.76;94.22
22649;BME280;11491;41.942;24.220;2022-12-18T03:13:21;90422.81;;;6.64;93.73
22649;BME280;11491;41.942;24.220;2022-12-18T03:15:53;90515.44;;;7.20;94.17
22649;BME280;11491;41.942;24.220;2022-12-18T03:18:27;90501.78;;;7.12;94.54
22649;BME280;11491;41.942;24.220;2022-12-18T03:21:00;90505.22;;;7.04;94.40
22649;BME280;11491;41.942;24.220;2022-12-18T03:23:35;90491.09;;;6.95;94.48
22649;BME280;11491;41.942;24.220;2022-12-18T03:26:09;90504.09;;;6.97;95.34
22649;BME280;11491;41.942;24.220;2022-12-18T03:28:42;90520.44;;;7.21;94.66
22649;BME280;11491;41.942;24.220;2022-12-18T03:31:12;90493.88;;;6.90;94.32
22649;BME280;11491;41.942;24.220;2022-12-18T03:33:43;90528.38;;;7.12;95.26
22649;BME280;11491;41.942;24.220;2022-12-18T03:36:14;90499.97;;;6.90;95.28
22649;BME280;11491;41.942;24.220;2022-12-18T03:38:41;90465.66;;;6.72;94.84
22649;BME280;11491;41.942;24.220;2022-12-18T03:41:16;90429.88;;;6.38;93.47
22649;BME280;11491;41.942;24.220;2022-12-18T03:43:52;90435.53;;;6.45;94.34
22649;BME280;11491;41.942;24.220;2022-12-18T03:46:27;90554.38;;;7.16;95.37
22649;BME280;11491;41.942;24.220;2022-12-18T03:48:59;90499.06;;;6.95;94.19
22649;BME280;11491;41.942;24.220;2022-12-18T03:51:36;90556.34;;;7.41;93.33
22649;BME280;11491;41.942;24.220;2022-12-18T03:54:09;90458.38;;;6.86;92.49
22649;BME280;11491;41.942;24.220;2022-12-18T03:56:56;90436.09;;;6.64;92.76
22649;BME280;11491;41.942;24.220;2022-12-18T03:59:36;90496.72;;;6.94;93.63
22649;BME280;11491;41.942;24.220;2022-12-18T04:02:07;90478.47;;;6.69;93.55
22649;BME280;11491;41.942;24.220;2022-12-18T04:04:36;90474.91;;;6.74;92.98
22649;BME280;11491;41.942;24.220;2022-12-18T04:07:05;90435.53;;;6.45;92.72
22649;BME280;11491;41.942;24.220;2022-12-18T04:09:34;90559.44;;;7.26;92.78
22649;BME280;11491;41.942;24.220;2022-12-18T04:12:02;90552.09;;;7.00;91.64
22649;BME280;11491;41.942;24.220;2022-12-18T04:14:33;90566.22;;;7.09;91.59
22649;BME280;11491;41.942;24.220;2022-12-18T04:17:17;90501.47;;;6.74;90.95
22649;BME280;11491;41.942;24.220;2022-12-18T04:19:57;90550.75;;;7.11;90.11
22649;BME280;11491;41.942;24.220;2022-12-18T04:22:25;90530.16;;;6.86;90.59
22649;BME280;11491;41.942;24.220;2022-12-18T04:24:57;90488.78;;;6.40;91.85
22649;BME280;11491;41.942;24.220;2022-12-18T04:27:27;90415.56;;;5.94;91.18
22649;BME280;11491;41.942;24.220;2022-12-18T04:29:56;90439.09;;;6.09;89.86
22649;BME280;11491;41.942;24.220;2022-12-18T04:32:25;90501.81;;;6.50;89.39
22649;BME280;11491;41.942;24.220;2022-12-18T04:34:53;90406.25;;;5.82;89.98
22649;BME280;11491;41.942;24.220;2022-12-18T04:37:20;90577.44;;;6.75;90.54
22649;BME280;11491;41.942;24.220;2022-12-18T04:39:48;90534.56;;;6.37;90.87
22649;BME280;11491;41.942;24.220;2022-12-18T04:42:15;90530.88;;;6.24;91.47
22649;BME280;11491;41.942;24.220;2022-12-18T04:44:46;90542.16;;;6.30;92.04
22649;BME280;11491;41.942;24.220;2022-12-18T04:47:14;90460.53;;;5.76;92.00
22649;BME280;11491;41.942;24.220;2022-12-18T04:49:47;90438.81;;;5.74;91.01
22649;BME280;11491;41.942;24.220;2022-12-18T04:52:15;90568.19;;;6.41;90.67
22649;BME280;11491;41.942;24.220;2022-12-18T04:54:45;90584.41;;;6.62;90.85
22649;BME280;11491;41.942;24.220;2022-12-18T04:57:19;90517.50;;;6.15;90.97
22649;BME280;11491;41.942;24.220;2022-12-18T04:59:46;90522.22;;;6.18;90.35
22649;BME280;11491;41.942;24.220;2022-12-18T05:02:14;90571.50;;;6.47;88.82
22649;BME280;11491;41.942;24.220;2022-12-18T05:04:41;90459.28;;;5.60;89.56
22649;BME280;11491;41.942;24.220;2022-12-18T05:07:10;90589.00;;;6.48;90.08
22649;BME280;11491;41.942;24.220;2022-12-18T05:09:39;90586.03;;;6.50;89.15
22649;BME280;11491;41.942;24.220;2022-12-18T05:12:15;90532.50;;;6.11;89.07
22649;BME280;11491;41.942;24.220;2022-12-18T05:14:48;90500.69;;;5.83;88.65
22649;BME280;11491;41.942;24.220;2022-12-18T05:17:16;90604.63;;;6.50;88.54
22649;BME280;11491;41.942;24.220;2022-12-18T05:19:43;90598.06;;;6.47;88.73
22649;BME280;11491;41.942;24.220;2022-12-18T05:22:11;90568.91;;;5.97;88.32
22649;BME280;11491;41.942;24.220;2022-12-18T05:24:40;90624.31;;;6.26;88.98
22649;BME280;11491;41.942;24.220;2022-12-18T05:27:07;90489.03;;;5.34;89.93
22649;BME280;11491;41.942;24.220;2022-12-18T05:29:35;90604.66;;;6.13;90.17
22649;BME280;11491;41.942;24.220;2022-12-18T05:32:02;90623.22;;;6.13;90.62
22649;BME280;11491;41.942;24.220;2022-12-18T05:34:29;90616.38;;;6.12;90.56
22649;BME280;11491;41.942;24.220;2022-12-18T05:36:59;90623.34;;;6.08;91.21
22649;BME280;11491;41.942;24.220;2022-12-18T05:46:19;90508.06;;;5.36;91.79
22649;BME280;11491;41.942;24.220;2022-12-18T06:35:05;90698.34;;;7.23;91.43
22649;BME280;11491;41.942;24.220;2022-12-18T06:37:36;90698.69;;;7.30;90.44
22649;BME280;11491;41.942;24.220;2022-12-18T06:40:05;90698.34;;;7.23;91.16
22649;BME280;11491;41.942;24.220;2022-12-18T06:42:32;90704.84;;;7.39;90.72
22649;BME280;11491;41.942;24.220;2022-12-18T06:44:59;90705.75;;;7.34;89.86
22649;BME280;11491;41.942;24.220;2022-12-18T06:47:26;90710.66;;;7.41;90.11
22649;BME280;11491;41.942;24.220;2022-12-18T06:52:25;90706.31;;;7.45;91.61
22649;BME280;11491;41.942;24.220;2022-12-18T06:57:27;90583.16;;;6.23;92.18
22649;BME280;11491;41.942;24.220;2022-12-18T06:59:54;90670.19;;;6.77;92.33
22649;BME280;11491;41.942;24.220;2022-12-18T07:02:21;90715.22;;;7.41;91.97
22649;BME280;11491;41.942;24.220;2022-12-18T07:04:49;90728.56;;;7.49;91.70
22649;BME280;11491;41.942;24.220;2022-12-18T07:07:16;90578.72;;;6.55;91.76
22649;BME280;11491;41.942;24.220;2022-12-18T07:09:44;90622.72;;;6.84;91.75
22649;BME280;11491;41.942;24.220;2022-12-18T07:12:11;90574.41;;;6.59;90.77
22649;BME280;11491;41.942;24.220;2022-12-18T07:14:38;90613.03;;;6.88;91.25
22649;BME280;11491;41.942;24.220;2022-12-18T07:17:05;90667.75;;;7.34;91.65
22649;BME280;11491;41.942;24.220;2022-12-18T07:19:33;90730.13;;;7.82;91.76
22649;BME280;11491;41.942;24.220;2022-12-18T07:22:00;90613.84;;;7.20;90.74
22649;BME280;11491;41.942;24.220;2022-12-18T07:24:27;90731.75;;;7.91;90.22
22649;BME280;11491;41.942;24.220;2022-12-18T07:26:55;90655.53;;;7.33;90.37
22649;BME280;11491;41.942;24.220;2022-12-18T07:29:22;90608.34;;;7.16;90.23
22649;BME280;11491;41.942;24.220;2022-12-18T07:31:49;90655.75;;;7.45;89.94
22649;BME280;11491;41.942;24.220;2022-12-18T07:34:16;90635.81;;;7.34;90.12
22649;BME280;11491;41.942;24.220;2022-12-18T07:36:43;90712.13;;;7.87;89.73
22649;BME280;11491;41.942;24.220;2022-12-18T07:39:10;90726.91;;;7.93;89.96
22649;BME280;11491;41.942;24.220;2022-12-18T07:41:38;90656.75;;;7.58;90.05
22649;BME280;11491;41.942;24.220;2022-12-18T07:44:10;90659.09;;;7.60;90.20
22649;BME280;11491;41.942;24.220;2022-12-18T07:46:38;90630.50;;;7.34;89.85
22649;BME280;11491;41.942;24.220;2022-12-18T07:49:04;90672.00;;;7.75;89.44
22649;BME280;11491;41.942;24.220;2022-12-18T07:51:32;90729.44;;;8.07;90.31
22649;BME280;11491;41.942;24.220;2022-12-18T07:53:59;90767.41;;;8.13;90.95
22649;BME280;11491;41.942;24.220;2022-12-18T07:56:26;90630.41;;;7.17;91.38
22649;BME280;11491;41.942;24.220;2022-12-18T07:58:53;90704.47;;;7.86;91.32
22649;BME280;11491;41.942;24.220;2022-12-18T08:01:22;90778.66;;;8.41;91.81
22649;BME280;11491;41.942;24.220;2022-12-18T08:04:06;90614.53;;;7.34;92.25
22649;BME280;11491;41.942;24.220;2022-12-18T08:09:23;90652.84;;;7.55;93.58
22649;BME280;11491;41.942;24.220;2022-12-18T08:11:54;90797.63;;;8.39;94.06
22649;BME280;11491;41.942;24.220;2022-12-18T08:14:21;90693.03;;;7.85;94.07
22649;BME280;11491;41.942;24.220;2022-12-18T08:36:16;90616.44;;;7.42;97.07
22649;BME280;11491;41.942;24.220;2022-12-18T08:41:20;90653.50;;;7.70;97.61
22649;BME280;11491;41.942;24.220;2022-12-18T08:49:07;90660.47;;;7.88;97.36
22649;BME280;11491;41.942;24.220;2022-12-18T08:57:01;90637.88;;;7.77;96.98
22649;BME280;11491;41.942;24.220;2022-12-18T08:59:29;90641.34;;;7.86;97.17
22649;BME280;11491;41.942;24.220;2022-12-18T09:04:58;90694.63;;;8.35;96.88
22649;BME280;11491;41.942;24.220;2022-12-18T09:07:34;90736.22;;;8.62;97.77
22649;BME280;11491;41.942;24.220;2022-12-18T09:13:09;90777.25;;;9.10;97.09
22649;BME280;11491;41.942;24.220;2022-12-18T09:15:46;90723.06;;;8.74;97.31
22649;BME280;11491;41.942;24.220;2022-12-18T09:29:27;90659.22;;;8.52;95.95
22649;BME280;11491;41.942;24.220;2022-12-18T09:34:58;90765.78;;;9.26;95.88
22649;BME280;11491;41.942;24.220;2022-12-18T09:37:28;90654.69;;;8.61;95.79
22649;BME280;11491;41.942;24.220;2022-12-18T09:39:55;90785.09;;;9.58;95.45
22649;BME280;11491;41.942;24.220;2022-12-18T09:42:35;90747.09;;;9.44;95.35
22649;BME280;11491;41.942;24.220;2022-12-18T09:47:53;90657.22;;;8.83;93.44
22649;BME280;11491;41.942;24.220;2022-12-18T11:29:15;90687.44;;;8.44;94.73
22649;BME280;11491;41.942;24.220;2022-12-18T11:31:44;90743.00;;;8.77;94.59
22649;BME280;11491;41.942;24.220;2022-12-18T11:34:13;90790.09;;;9.16;95.05
22649;BME280;11491;41.942;24.220;2022-12-18T11:36:45;90787.75;;;9.23;95.00
22649;BME280;11491;41.942;24.220;2022-12-18T11:42:10;90660.03;;;8.04;95.22
22649;BME280;11491;41.942;24.220;2022-12-18T11:44:47;90686.78;;;8.30;94.71
22649;BME280;11491;41.942;24.220;2022-12-18T11:47:25;90745.34;;;8.70;94.63
22649;BME280;11491;41.942;24.220;2022-12-18T11:49:56;90646.56;;;8.00;94.35
22649;BME280;11491;41.942;24.220;2022-12-18T11:52:30;90647.03;;;7.93;94.62
22649;BME280;11491;41.942;24.220;2022-12-18T11:55:01;90718.19;;;8.50;94.25
22649;BME280;11491;41.942;24.220;2022-12-18T11:57:35;90749.88;;;8.60;94.54
22649;BME280;11491;41.942;24.220;2022-12-18T12:00:12;90672.13;;;8.10;93.54
22649;BME280;11491;41.942;24.220;2022-12-18T12:03:00;90756.16;;;8.65;93.50
22649;BME280;11491;41.942;24.220;2022-12-18T12:05:38;90717.66;;;8.39;93.56
22649;BME280;11491;41.942;24.220;2022-12-18T12:08:15;90663.00;;;7.93;93.55
22649;BME280;11491;41.942;24.220;2022-12-18T12:10:53;90677.72;;;7.99;94.06
22649;BME280;11491;41.942;24.220;2022-12-18T12:13:36;90712.00;;;8.32;93.82
22649;BME280;11491;41.942;24.220;2022-12-18T12:16:15;90746.16;;;8.30;93.82
22649;BME280;11491;41.942;24.220;2022-12-18T12:18:53;90645.00;;;7.50;94.19
22649;BME280;11491;41.942;24.220;2022-12-18T12:21:28;90685.44;;;7.70;94.76
22649;BME280;11491;41.942;24.220;2022-12-18T12:24:04;90714.06;;;7.95;95.12
22649;BME280;11491;41.942;24.220;2022-12-18T12:26:41;90741.38;;;8.10;95.46
22649;BME280;11491;41.942;24.220;2022-12-18T12:29:24;90727.78;;;7.80;95.62
22649;BME280;11491;41.942;24.220;2022-12-18T12:32:07;90784.41;;;8.34;95.96
22649;BME280;11491;41.942;24.220;2022-12-18T12:34:52;90659.94;;;7.38;95.66
22649;BME280;11491;41.942;24.220;2022-12-18T12:37:32;90766.94;;;8.19;95.79
22649;BME280;11491;41.942;24.220;2022-12-18T12:40:06;90765.53;;;8.13;95.31
22649;BME280;11491;41.942;24.220;2022-12-18T12:42:51;90741.63;;;7.99;95.18
22649;BME280;11491;41.942;24.220;2022-12-18T12:45:32;90657.72;;;7.31;95.52
22649;BME280;11491;41.942;24.220;2022-12-18T12:51:16;90730.91;;;7.82;94.97
22649;BME280;11491;41.942;24.220;2022-12-18T12:53:45;90773.59;;;7.99;94.11
22649;BME280;11491;41.942;24.220;2022-12-18T12:56:15;90773.59;;;7.99;93.54
22649;BME280;11491;41.942;24.220;2022-12-18T12:58:54;90745.75;;;7.74;93.94
22649;BME280;11491;41.942;24.220;2022-12-18T13:01:32;90685.03;;;7.23;93.94
22649;BME280;11491;41.942;24.220;2022-12-18T13:04:10;90813.19;;;8.15;94.04
22649;BME280;11491;41.942;24.220;2022-12-18T13:06:44;90809.06;;;8.09;94.02
22649;BME280;11491;41.942;24.220;2022-12-18T13:09:12;90819.00;;;7.94;93.91
22649;BME280;11491;41.942;24.220;2022-12-18T13:11:41;90813.94;;;7.84;94.19
22649;BME280;11491;41.942;24.220;2022-12-18T13:14:31;90828.59;;;7.73;94.32
22649;BME280;11491;41.942;24.220;2022-12-18T13:17:26;90810.91;;;7.54;94.88
22649;BME280;11491;41.942;24.220;2022-12-18T13:20:05;90830.66;;;7.53;94.92
22649;BME280;11491;41.942;24.220;2022-12-18T13:22:37;90833.44;;;7.48;94.59
22649;BME280;11491;41.942;24.220;2022-12-18T13:25:29;90840.31;;;7.49;94.90
22649;BME280;11491;41.942;24.220;2022-12-18T13:28:01;90841.16;;;7.36;94.56
22649;BME280;11491;41.942;24.220;2022-12-18T13:30:55;90847.66;;;7.30;94.74
22649;BME280;11491;41.942;24.220;2022-12-18T13:33:47;90838.63;;;7.17;94.54
22649;BME280;11491;41.942;24.220;2022-12-18T13:42:39;90792.06;;;6.69;94.21
22649;BME280;11491;41.942;24.220;2022-12-18T13:45:44;90705.34;;;5.96;93.98
22649;BME280;11491;41.942;24.220;2022-12-18T13:48:22;90857.28;;;7.03;94.82
22649;BME280;11491;41.942;24.220;2022-12-18T13:50:53;90811.88;;;6.50;94.40
22649;BME280;11491;41.942;24.220;2022-12-18T13:53:25;90718.06;;;5.99;94.48
22649;BME280;11491;41.942;24.220;2022-12-18T13:55:55;90713.00;;;5.83;94.41
22649;BME280;11491;41.942;24.220;2022-12-18T13:58:39;90878.75;;;6.93;93.39
22649;BME280;11491;41.942;24.220;2022-12-18T14:01:21;90808.63;;;6.39;94.48
22649;BME280;11491;41.942;24.220;2022-12-18T14:06:34;90811.56;;;6.23;93.41
22649;BME280;11491;41.942;24.220;2022-12-18T14:09:05;90787.56;;;6.01;94.17
22649;BME280;11491;41.942;24.220;2022-12-18T14:11:48;90771.75;;;5.63;94.79
22649;BME280;11491;41.942;24.220;2022-12-18T14:16:52;90826.47;;;5.92;95.31
22649;BME280;11491;41.942;24.220;2022-12-18T14:22:14;90880.44;;;6.34;93.68
22649;BME280;11491;41.942;24.220;2022-12-18T14:24:42;90938.72;;;6.44;94.88
22649;BME280;11491;41.942;24.220;2022-12-18T14:27:20;90836.66;;;5.85;95.12
22649;BME280;11491;41.942;24.220;2022-12-18T14:29:47;90921.75;;;6.26;95.36
22649;BME280;11491;41.942;24.220;2022-12-18T14:32:17;90783.59;;;5.19;95.41
22649;BME280;11491;41.942;24.220;2022-12-18T14:34:46;90927.94;;;6.21;95.91
22649;BME280;11491;41.942;24.220;2022-12-18T14:37:15;90942.19;;;6.25;95.78
22649;BME280;11491;41.942;24.220;2022-12-18T14:39:53;90921.53;;;6.22;96.17
22649;BME280;11491;41.942;24.220;2022-12-18T14:42:20;90904.59;;;6.04;97.38
22649;BME280;11491;41.942;24.220;2022-12-18T14:44:47;90870.16;;;5.99;96.80
22649;BME280;11491;41.942;24.220;2022-12-18T14:52:43;90886.50;;;6.07;95.22
22649;BME280;11491;41.942;24.220;2022-12-18T14:55:15;90957.63;;;6.56;94.20
22649;BME280;11491;41.942;24.220;2022-12-18T15:00:20;90787.94;;;5.48;92.81
22649;BME280;11491;41.942;24.220;2022-12-18T15:18:29;90959.50;;;6.69;93.74
22649;BME280;11491;41.942;24.220;2022-12-18T15:29:02;90917.06;;;6.64;92.43
22649;BME280;11491;41.942;24.220;2022-12-18T15:31:58;90863.88;;;6.09;91.57
22649;BME280;11491;41.942;24.220;2022-12-18T15:34:28;90982.41;;;6.65;91.99
22649;BME280;11491;41.942;24.220;2022-12-18T15:36:56;90915.63;;;6.25;92.89
22649;BME280;11491;41.942;24.220;2022-12-18T15:39:31;90924.09;;;6.28;92.97
22649;BME280;11491;41.942;24.220;2022-12-18T15:42:14;90970.63;;;6.72;92.57
22649;BME280;11491;41.942;24.220;2022-12-18T15:44:58;90967.47;;;6.69;92.67
22649;BME280;11491;41.942;24.220;2022-12-18T15:58:00;90848.19;;;5.61;92.90
22649;BME280;11491;41.942;24.220;2022-12-18T16:00:27;90972.75;;;6.42;92.93
22649;BME280;11491;41.942;24.220;2022-12-18T16:02:54;90939.63;;;6.20;93.16
22649;BME280;11491;41.942;24.220;2022-12-18T16:05:22;90884.53;;;5.60;93.41
22649;BME280;11491;41.942;24.220;2022-12-18T16:07:50;90919.91;;;5.94;93.27
22649;BME280;11491;41.942;24.220;2022-12-18T16:12:52;91017.66;;;6.57;92.94
22649;BME280;11491;41.942;24.220;2022-12-18T16:18:23;91010.97;;;6.60;92.32
22649;BME280;11491;41.942;24.220;2022-12-18T16:20:51;91008.47;;;6.50;91.98
22649;BME280;11491;41.942;24.220;2022-12-18T16:25:56;90861.03;;;5.54;92.05
22649;BME280;11491;41.942;24.220;2022-12-18T16:36:29;91016.63;;;6.53;90.31
22649;BME280;11491;41.942;24.220;2022-12-18T16:38:56;90994.34;;;6.21;91.54
22649;BME280;11491;41.942;24.220;2022-12-18T16:41:23;90874.88;;;5.51;91.60
22649;BME280;11491;41.942;24.220;2022-12-18T16:44:00;90954.16;;;6.09;91.67
22649;BME280;11491;41.942;24.220;2022-12-18T16:46:34;91047.75;;;6.53;91.64
22649;BME280;11491;41.942;24.220;2022-12-18T16:57:24;90977.63;;;6.02;91.70
22649;BME280;11491;41.942;24.220;2022-12-18T17:04:59;91039.56;;;6.49;90.94
22649;BME280;11491;41.942;24.220;2022-12-18T17:07:31;90983.81;;;5.97;90.80
22649;BME280;11491;41.942;24.220;2022-12-18T17:12:56;91041.19;;;6.31;90.64
22649;BME280;11491;41.942;24.220;2022-12-18T17:15:22;91034.66;;;6.23;90.96
22649;BME280;11491;41.942;24.220;2022-12-18T17:17:49;91030.78;;;6.16;91.13
22649;BME280;11491;41.942;24.220;2022-12-18T17:20:17;91028.50;;;6.09;90.95
22649;BME280;11491;41.942;24.220;2022-12-18T17:37:41;90956.31;;;5.31;89.41
22649;BME280;11491;41.942;24.220;2022-12-18T17:48:34;91006.38;;;5.57;89.01
22649;BME280;11491;41.942;24.220;2022-12-18T17:51:02;91085.47;;;5.98;89.57
22649;BME280;11491;41.942;24.220;2022-12-18T17:53:31;91044.28;;;5.81;88.35
22649;BME280;11491;41.942;24.220;2022-12-18T17:55:59;90937.63;;;4.99;88.30
22649;BME280;11491;41.942;24.220;2022-12-18T17:58:27;91019.16;;;5.55;89.12
22649;BME280;11491;41.942;24.220;2022-12-18T18:00:54;91017.00;;;5.57;89.31
22649;BME280;11491;41.942;24.220;2022-12-18T18:03:21;91091.03;;;6.01;88.51
22649;BME280;11491;41.942;24.220;2022-12-18T18:05:53;90948.31;;;4.93;88.49
22649;BME280;11491;41.942;24.220;2022-12-18T18:08:40;90975.13;;;5.11;88.89
22649;BME280;11491;41.942;24.220;2022-12-18T18:17:03;91097.34;;;5.81;88.83
22649;BME280;11491;41.942;24.220;2022-12-18T18:19:32;91029.56;;;5.27;88.74
22649;BME280;11491;41.942;24.220;2022-12-18T18:22:14;91065.09;;;5.50;88.39
22649;BME280;11491;41.942;24.220;2022-12-18T18:24:49;91099.63;;;5.69;88.98
22649;BME280;11491;41.942;24.220;2022-12-18T18:27:20;90947.59;;;4.64;88.35
22649;BME280;11491;41.942;24.220;2022-12-18T18:29:47;90983.50;;;4.75;87.82
22649;BME280;11491;41.942;24.220;2022-12-18T18:32:14;91073.69;;;5.42;87.56
22649;BME280;11491;41.942;24.220;2022-12-18T18:34:41;91085.41;;;5.36;87.50
22649;BME280;11491;41.942;24.220;2022-12-18T18:37:09;90971.59;;;4.48;87.95
22649;BME280;11491;41.942;24.220;2022-12-18T18:44:59;91086.81;;;5.28;86.77
22649;BME280;11491;41.942;24.220;2022-12-18T18:47:28;91030.78;;;4.63;87.50
22649;BME280;11491;41.942;24.220;2022-12-18T18:52:43;91054.84;;;4.95;86.63
22649;BME280;11491;41.942;24.220;2022-12-18T18:55:10;91079.09;;;5.08;87.21
22649;BME280;11491;41.942;24.220;2022-12-18T19:02:51;91147.25;;;5.31;87.29
22649;BME280;11491;41.942;24.220;2022-12-18T19:05:18;91153.38;;;5.32;88.17
22649;BME280;11491;41.942;24.220;2022-12-18T19:07:46;91151.03;;;5.25;88.39
22649;BME280;11491;41.942;24.220;2022-12-18T19:10:23;90979.97;;;3.97;89.05
22649;BME280;11491;41.942;24.220;2022-12-18T19:15:40;91173.34;;;5.24;90.38
22649;BME280;11491;41.942;24.220;2022-12-18T19:39:17;91118.63;;;4.75;89.25
22649;BME280;11491;41.942;24.220;2022-12-18T19:41:44;91105.53;;;4.60;89.50
22649;BME280;11491;41.942;24.220;2022-12-18T19:44:11;91125.50;;;4.76;89.54
22649;BME280;11491;41.942;24.220;2022-12-18T19:46:38;91115.56;;;4.63;89.44
22649;BME280;11491;41.942;24.220;2022-12-18T19:49:07;91034.06;;;4.20;88.92
22649;BME280;11491;41.942;24.220;2022-12-18T19:51:34;91156.34;;;4.96;89.62
22649;BME280;11491;41.942;24.220;2022-12-18T19:54:01;91119.72;;;4.69;89.38
22649;BME280;11491;41.942;24.220;2022-12-18T19:56:31;91156.94;;;4.88;89.48
22649;BME280;11491;41.942;24.220;2022-12-18T19:58:59;91068.78;;;4.14;89.47
22649;BME280;11491;41.942;24.220;2022-12-18T20:01:29;91123.00;;;4.61;89.67
22649;BME280;11491;41.942;24.220;2022-12-18T20:03:58;91047.41;;;4.05;90.15
22649;BME280;11491;41.942;24.220;2022-12-18T20:06:28;91042.44;;;3.98;90.82
22649;BME280;11491;41.942;24.220;2022-12-18T20:08:57;91086.19;;;4.25;90.61
22649;BME280;11491;41.942;24.220;2022-12-18T20:11:24;91173.28;;;5.00;90.89
22649;BME280;11491;41.942;24.220;2022-12-18T20:13:52;91175.59;;;5.07;90.27
22649;BME280;11491;41.942;24.220;2022-12-18T20:16:19;91187.84;;;5.03;89.74
22649;BME280;11491;41.942;24.220;2022-12-18T20:18:47;91187.94;;;4.92;89.78
22649;BME280;11491;41.942;24.220;2022-12-18T20:21:14;91189.03;;;4.86;90.90
22649;BME280;11491;41.942;24.220;2022-12-18T20:23:41;91188.97;;;4.91;90.53
22649;BME280;11491;41.942;24.220;2022-12-18T20:26:08;91199.00;;;5.00;89.80
22649;BME280;11491;41.942;24.220;2022-12-18T20:28:35;91205.31;;;5.04;89.91
22649;BME280;11491;41.942;24.220;2022-12-18T20:31:05;91199.97;;;5.09;89.37
22649;BME280;11491;41.942;24.220;2022-12-18T20:33:33;91208.50;;;5.06;88.91
22649;BME280;11491;41.942;24.220;2022-12-18T20:36:00;91200.50;;;5.11;89.40
22649;BME280;11491;41.942;24.220;2022-12-18T20:38:28;91203.66;;;5.13;89.31
22649;BME280;11491;41.942;24.220;2022-12-18T20:40:55;91204.69;;;5.17;89.29
22649;BME280;11491;41.942;24.220;2022-12-18T20:43:21;91211.09;;;5.11;88.95
22649;BME280;11491;41.942;24.220;2022-12-18T20:45:48;91208.41;;;5.16;89.24
22649;BME280;11491;41.942;24.220;2022-12-18T20:48:16;91209.53;;;5.10;89.23
22649;BME280;11491;41.942;24.220;2022-12-18T20:50:43;91201.63;;;5.05;89.23
22649;BME280;11491;41.942;24.220;2022-12-18T20:53:10;91215.34;;;5.12;89.72
22649;BME280;11491;41.942;24.220;2022-12-18T20:55:40;91210.53;;;5.14;90.03
22649;BME280;11491;41.942;24.220;2022-12-18T20:58:07;91208.44;;;5.11;90.03
22649;BME280;11491;41.942;24.220;2022-12-18T21:00:34;91215.59;;;5.10;89.53
22649;BME280;11491;41.942;24.220;2022-12-18T21:03:00;91216.41;;;5.11;89.02
22649;BME280;11491;41.942;24.220;2022-12-18T21:05:29;91213.19;;;5.14;88.97
22649;BME280;11491;41.942;24.220;2022-12-18T21:07:55;91220.66;;;5.12;88.83
22649;BME280;11491;41.942;24.220;2022-12-18T21:10:22;91220.59;;;5.17;89.08
22649;BME280;11491;41.942;24.220;2022-12-18T21:12:50;91219.03;;;5.11;89.05
22649;BME280;11491;41.942;24.220;2022-12-18T21:15:16;91216.69;;;5.09;89.75
22649;BME280;11491;41.942;24.220;2022-12-18T21:17:42;91226.22;;;5.10;89.69
22649;BME280;11491;41.942;24.220;2022-12-18T21:20:10;91222.25;;;5.08;89.67
22649;BME280;11491;41.942;24.220;2022-12-18T21:22:39;91223.88;;;5.04;89.96
22649;BME280;11491;41.942;24.220;2022-12-18T21:25:06;91221.69;;;5.11;89.28
22649;BME280;11491;41.942;24.220;2022-12-18T21:27:34;91221.94;;;5.14;89.68
22649;BME280;11491;41.942;24.220;2022-12-18T21:30:01;91221.47;;;5.07;89.23
22649;BME280;11491;41.942;24.220;2022-12-18T21:32:30;91213.19;;;5.14;89.13
22649;BME280;11491;41.942;24.220;2022-12-18T21:34:56;91215.84;;;5.14;88.60
22649;BME280;11491;41.942;24.220;2022-12-18T21:37:23;91216.41;;;5.11;88.92